sensor_id;sensor_type;location;lat;lon;timestamp;pressure;altitude;pressure_sealevel;temperature;humidity
11888;BME280;6003;42.756;23.130;2022-08-01T00:00:50;156570.13;;;16.12;83.74
11888;BME280;6003;42.756;23.130;2022-08-01T00:03:17;156583.38;;;16.17;83.42
11888;BME280;6003;42.756;23.130;2022-08-01T00:05:44;156606.00;;;16.26;82.83
11888;BME280;6003;42.756;23.130;2022-08-01T00:08:11;156583.38;;;16.17;82.96
11888;BME280;6003;42.756;23.130;2022-08-01T00:10:38;156580.75;;;16.16;82.13
11888;BME280;6003;42.756;23.130;2022-08-01T00:13:05;156579.41;;;16.15;82.14
11888;BME280;6003;42.756;23.130;2022-08-01T00:15:34;156550.22;;;16.04;82.19
11888;BME280;6003;42.756;23.130;2022-08-01T00:18:01;156563.50;;;16.09;81.91
11888;BME280;6003;42.756;23.130;2022-08-01T00:20:28;156523.66;;;15.94;81.87
11888;BME280;6003;42.756;23.130;2022-08-01T00:22:55;156552.84;;;16.05;81.67
11888;BME280;6003;42.756;23.130;2022-08-01T00:25:22;156555.53;;;16.06;81.50
11888;BME280;6003;42.756;23.130;2022-08-01T00:27:49;156518.38;;;15.92;81.07
11888;BME280;6003;42.756;23.130;2022-08-01T00:30:33;156530.28;;;15.96;81.22
11888;BME280;6003;42.756;23.130;2022-08-01T00:33:01;156532.97;;;15.97;81.09
11888;BME280;6003;42.756;23.130;2022-08-01T00:35:28;156505.09;;;15.87;81.10
11888;BME280;6003;42.756;23.130;2022-08-01T00:37:55;156539.63;;;16.00;80.23
11888;BME280;6003;42.756;23.130;2022-08-01T00:40:22;156554.22;;;16.06;79.52
11888;BME280;6003;42.756;23.130;2022-08-01T00:42:49;156566.13;;;16.10;79.70
11888;BME280;6003;42.756;23.130;2022-08-01T00:45:16;156560.81;;;16.08;79.15
11888;BME280;6003;42.756;23.130;2022-08-01T00:47:44;156567.44;;;16.11;79.47
11888;BME280;6003;42.756;23.130;2022-08-01T00:53:29;156550.22;;;16.04;80.69
11888;BME280;6003;42.756;23.130;2022-08-01T00:55:56;156513.03;;;15.90;81.44
11888;BME280;6003;42.756;23.130;2022-08-01T00:58:24;156438.69;;;15.61;82.56
11888;BME280;6003;42.756;23.130;2022-08-01T01:00:51;156441.31;;;15.62;82.54
11888;BME280;6003;42.756;23.130;2022-08-01T01:03:19;156420.13;;;15.54;83.21
11888;BME280;6003;42.756;23.130;2022-08-01T01:05:53;156418.75;;;15.53;83.06
11888;BME280;6003;42.756;23.130;2022-08-01T01:08:27;156401.53;;;15.47;82.57
11888;BME280;6003;42.756;23.130;2022-08-01T01:11:01;156369.69;;;15.34;83.21
11888;BME280;6003;42.756;23.130;2022-08-01T01:13:35;156385.63;;;15.41;82.63
11888;BME280;6003;42.756;23.130;2022-08-01T01:16:07;156396.22;;;15.45;82.04
11888;BME280;6003;42.756;23.130;2022-08-01T01:18:39;156396.22;;;15.45;81.57
11888;BME280;6003;42.756;23.130;2022-08-01T01:21:22;156420.13;;;15.54;81.23
11888;BME280;6003;42.756;23.130;2022-08-01T01:23:57;156400.22;;;15.46;81.37
11888;BME280;6003;42.756;23.130;2022-08-01T01:26:37;156397.56;;;15.45;81.86
11888;BME280;6003;42.756;23.130;2022-08-01T01:29:13;156377.66;;;15.38;81.48
11888;BME280;6003;42.756;23.130;2022-08-01T01:31:46;156375.03;;;15.37;81.96
11888;BME280;6003;42.756;23.130;2022-08-01T01:34:18;156398.91;;;15.46;81.65
11888;BME280;6003;42.756;23.130;2022-08-01T01:36:47;156390.94;;;15.43;81.97
11888;BME280;6003;42.756;23.130;2022-08-01T01:39:15;156352.47;;;15.28;82.51
11888;BME280;6003;42.756;23.130;2022-08-01T01:41:44;156353.78;;;15.28;82.61
11888;BME280;6003;42.756;23.130;2022-08-01T01:44:13;156329.94;;;15.19;82.72
11888;BME280;6003;42.756;23.130;2022-08-01T01:46:42;156344.53;;;15.25;82.42
11888;BME280;6003;42.756;23.130;2022-08-01T01:49:10;156357.75;;;15.30;82.26
11888;BME280;6003;42.756;23.130;2022-08-01T01:51:38;156353.78;;;15.28;83.11
11888;BME280;6003;42.756;23.130;2022-08-01T01:54:08;156335.19;;;15.21;82.97
11888;BME280;6003;42.756;23.130;2022-08-01T01:56:36;156344.53;;;15.25;82.83
11888;BME280;6003;42.756;23.130;2022-08-01T01:59:16;156357.75;;;15.30;82.70
11888;BME280;6003;42.756;23.130;2022-08-01T02:01:47;156343.16;;;15.24;82.29
11888;BME280;6003;42.756;23.130;2022-08-01T02:04:16;156327.25;;;15.18;82.00
11888;BME280;6003;42.756;23.130;2022-08-01T02:06:45;156316.66;;;15.14;82.29
11888;BME280;6003;42.756;23.130;2022-08-01T02:09:15;156319.28;;;15.15;82.82
11888;BME280;6003;42.756;23.130;2022-08-01T02:11:44;156337.88;;;15.22;82.37
11888;BME280;6003;42.756;23.130;2022-08-01T02:14:13;156339.19;;;15.23;81.22
11888;BME280;6003;42.756;23.130;2022-08-01T02:16:44;156343.16;;;15.24;81.23
11888;BME280;6003;42.756;23.130;2022-08-01T02:22:27;156321.91;;;15.16;81.90
11888;BME280;6003;42.756;23.130;2022-08-01T02:25:00;156300.75;;;15.08;82.18
11888;BME280;6003;42.756;23.130;2022-08-01T02:27:33;156270.25;;;14.96;82.15
11888;BME280;6003;42.756;23.130;2022-08-01T02:30:03;156276.81;;;14.99;81.99
11888;BME280;6003;42.756;23.130;2022-08-01T02:32:36;156279.50;;;15.00;81.45
11888;BME280;6003;42.756;23.130;2022-08-01T02:35:07;156268.88;;;14.96;81.07
11888;BME280;6003;42.756;23.130;2022-08-01T02:37:38;156290.09;;;15.04;80.61
11888;BME280;6003;42.756;23.130;2022-08-01T02:40:37;156291.41;;;15.04;80.79
11888;BME280;6003;42.756;23.130;2022-08-01T02:43:05;156268.88;;;14.96;80.79
11888;BME280;6003;42.756;23.130;2022-08-01T02:45:35;156242.38;;;14.85;81.59
11888;BME280;6003;42.756;23.130;2022-08-01T02:48:09;156229.09;;;14.80;82.18
11888;BME280;6003;42.756;23.130;2022-08-01T02:50:37;156213.19;;;14.74;82.59
11888;BME280;6003;42.756;23.130;2022-08-01T02:53:06;156188.03;;;14.64;83.10
11888;BME280;6003;42.756;23.130;2022-08-01T02:55:37;156222.47;;;14.78;82.44
11888;BME280;6003;42.756;23.130;2022-08-01T02:58:06;156237.06;;;14.83;82.75
11888;BME280;6003;42.756;23.130;2022-08-01T03:00:34;156247.69;;;14.87;82.91
11888;BME280;6003;42.756;23.130;2022-08-01T03:03:05;156207.88;;;14.72;83.54
11888;BME280;6003;42.756;23.130;2022-08-01T03:05:35;156177.38;;;14.60;83.89
11888;BME280;6003;42.756;23.130;2022-08-01T03:08:02;156223.78;;;14.78;84.46
11888;BME280;6003;42.756;23.130;2022-08-01T03:10:31;156186.66;;;14.64;84.76
11888;BME280;6003;42.756;23.130;2022-08-01T03:13:00;156185.34;;;14.63;84.82
11888;BME280;6003;42.756;23.130;2022-08-01T03:15:31;156202.56;;;14.70;84.91
11888;BME280;6003;42.756;23.130;2022-08-01T03:17:59;156221.16;;;14.77;84.38
11888;BME280;6003;42.756;23.130;2022-08-01T03:20:32;156222.47;;;14.78;85.07
11888;BME280;6003;42.756;23.130;2022-08-01T03:23:01;156219.84;;;14.77;84.07
11888;BME280;6003;42.756;23.130;2022-08-01T03:25:30;156237.06;;;14.83;83.75
11888;BME280;6003;42.756;23.130;2022-08-01T03:27:59;156245.00;;;14.86;83.39
11888;BME280;6003;42.756;23.130;2022-08-01T03:30:29;156250.34;;;14.88;83.75
11888;BME280;6003;42.756;23.130;2022-08-01T03:32:57;156288.78;;;15.03;83.03
11888;BME280;6003;42.756;23.130;2022-08-01T03:35:28;156341.84;;;15.24;81.93
11888;BME280;6003;42.756;23.130;2022-08-01T03:38:00;156417.44;;;15.53;80.69
11888;BME280;6003;42.756;23.130;2022-08-01T03:40:31;156491.81;;;15.82;79.29
11888;BME280;6003;42.756;23.130;2022-08-01T03:43:05;156559.50;;;16.08;77.03
11888;BME280;6003;42.756;23.130;2022-08-01T03:45:35;156597.97;;;16.22;76.74
11888;BME280;6003;42.756;23.130;2022-08-01T03:48:09;156550.22;;;16.04;77.18
11888;BME280;6003;42.756;23.130;2022-08-01T03:50:39;156568.81;;;16.11;77.08
11888;BME280;6003;42.756;23.130;2022-08-01T03:53:10;156552.84;;;16.05;77.24
11888;BME280;6003;42.756;23.130;2022-08-01T03:55:39;156526.34;;;15.95;78.05
11888;BME280;6003;42.756;23.130;2022-08-01T03:58:06;156555.53;;;16.06;77.75
11888;BME280;6003;42.756;23.130;2022-08-01T04:00:35;156579.41;;;16.15;77.82
11888;BME280;6003;42.756;23.130;2022-08-01T04:03:04;156579.41;;;16.15;77.38
11888;BME280;6003;42.756;23.130;2022-08-01T04:05:31;156571.47;;;16.12;77.61
11888;BME280;6003;42.756;23.130;2022-08-01T04:07:58;156595.34;;;16.21;78.07
11888;BME280;6003;42.756;23.130;2022-08-01T04:10:29;156613.94;;;16.29;77.56
11888;BME280;6003;42.756;23.130;2022-08-01T04:12:56;156625.88;;;16.33;77.12
11888;BME280;6003;42.756;23.130;2022-08-01T04:15:23;156637.84;;;16.38;76.97
11888;BME280;6003;42.756;23.130;2022-08-01T04:17:50;156656.41;;;16.45;76.68
11888;BME280;6003;42.756;23.130;2022-08-01T04:20:19;156688.31;;;16.57;76.29
11888;BME280;6003;42.756;23.130;2022-08-01T04:22:46;156712.19;;;16.66;76.14
11888;BME280;6003;42.756;23.130;2022-08-01T04:25:17;156722.78;;;16.70;75.79
11888;BME280;6003;42.756;23.130;2022-08-01T04:27:50;156781.28;;;16.93;74.99
11888;BME280;6003;42.756;23.130;2022-08-01T04:30:22;156837.06;;;17.14;74.36
11888;BME280;6003;42.756;23.130;2022-08-01T04:32:51;157051.06;;;17.97;71.79
11888;BME280;6003;42.756;23.130;2022-08-01T04:35:20;157350.28;;;19.12;67.37
11888;BME280;6003;42.756;23.130;2022-08-01T04:37:48;157660.38;;;20.31;64.18
11888;BME280;6003;42.756;23.130;2022-08-01T04:40:17;158005.47;;;21.63;60.72
11888;BME280;6003;42.756;23.130;2022-08-01T04:42:44;158302.81;;;22.78;56.75
11888;BME280;6003;42.756;23.130;2022-08-01T04:45:15;158540.31;;;23.69;54.97
11888;BME280;6003;42.756;23.130;2022-08-01T04:47:43;158749.97;;;24.49;52.92
11888;BME280;6003;42.756;23.130;2022-08-01T04:50:11;158887.50;;;25.02;50.77
11888;BME280;6003;42.756;23.130;2022-08-01T04:52:38;158919.56;;;25.14;50.26
11888;BME280;6003;42.756;23.130;2022-08-01T04:55:08;159027.81;;;25.55;49.00
11888;BME280;6003;42.756;23.130;2022-08-01T04:57:38;159134.75;;;25.96;48.62
11888;BME280;6003;42.756;23.130;2022-08-01T05:00:09;159284.47;;;26.53;48.18
11888;BME280;6003;42.756;23.130;2022-08-01T05:02:37;159198.84;;;26.21;48.55
11888;BME280;6003;42.756;23.130;2022-08-01T05:05:05;159225.63;;;26.31;47.49
11888;BME280;6003;42.756;23.130;2022-08-01T05:07:32;159284.47;;;26.53;46.72
11888;BME280;6003;42.756;23.130;2022-08-01T05:10:01;159265.69;;;26.46;47.65
11888;BME280;6003;42.756;23.130;2022-08-01T05:12:28;159325.91;;;26.69;47.73
11888;BME280;6003;42.756;23.130;2022-08-01T05:14:57;159368.69;;;26.86;47.16
11888;BME280;6003;42.756;23.130;2022-08-01T05:17:23;159359.34;;;26.82;46.12
11888;BME280;6003;42.756;23.130;2022-08-01T05:19:52;159415.50;;;27.04;46.32
11888;BME280;6003;42.756;23.130;2022-08-01T05:22:19;159466.38;;;27.23;45.98
11888;BME280;6003;42.756;23.130;2022-08-01T05:24:46;159461.00;;;27.21;44.52
11888;BME280;6003;42.756;23.130;2022-08-01T05:27:13;159502.50;;;27.37;44.20
11888;BME280;6003;42.756;23.130;2022-08-01T05:29:40;159708.53;;;28.16;42.99
11888;BME280;6003;42.756;23.130;2022-08-01T05:32:07;159776.84;;;28.42;43.30
11888;BME280;6003;42.756;23.130;2022-08-01T05:34:35;159735.31;;;28.26;43.37
11888;BME280;6003;42.756;23.130;2022-08-01T05:37:03;159553.28;;;27.56;43.61
11888;BME280;6003;42.756;23.130;2022-08-01T05:39:30;159466.38;;;27.23;45.25
11888;BME280;6003;42.756;23.130;2022-08-01T05:41:57;159661.72;;;27.98;41.71
11888;BME280;6003;42.756;23.130;2022-08-01T05:44:24;159584.09;;;27.68;43.62
11888;BME280;6003;42.756;23.130;2022-08-01T05:46:51;159740.66;;;28.28;42.54
11888;BME280;6003;42.756;23.130;2022-08-01T05:49:18;159838.41;;;28.65;41.78
11888;BME280;6003;42.756;23.130;2022-08-01T05:51:45;159843.75;;;28.67;40.30
11888;BME280;6003;42.756;23.130;2022-08-01T05:54:13;159893.31;;;28.86;43.70
11888;BME280;6003;42.756;23.130;2022-08-01T05:56:40;159847.81;;;28.69;40.05
11888;BME280;6003;42.756;23.130;2022-08-01T05:59:06;159862.53;;;28.74;41.27
11888;BME280;6003;42.756;23.130;2022-08-01T06:01:33;159905.34;;;28.91;41.20
11888;BME280;6003;42.756;23.130;2022-08-01T06:04:00;159916.06;;;28.95;40.95
11888;BME280;6003;42.756;23.130;2022-08-01T06:06:27;160044.66;;;29.44;39.33
11888;BME280;6003;42.756;23.130;2022-08-01T06:08:54;160070.09;;;29.54;39.16
11888;BME280;6003;42.756;23.130;2022-08-01T06:11:22;160204.09;;;30.05;38.24
11888;BME280;6003;42.756;23.130;2022-08-01T06:13:49;160090.19;;;29.61;38.90
11888;BME280;6003;42.756;23.130;2022-08-01T06:16:16;160181.31;;;29.96;39.81
11888;BME280;6003;42.756;23.130;2022-08-01T06:18:43;160096.94;;;29.64;38.99
11888;BME280;6003;42.756;23.130;2022-08-01T06:21:10;160186.69;;;29.98;39.45
11888;BME280;6003;42.756;23.130;2022-08-01T06:23:37;160213.44;;;30.08;38.38
11888;BME280;6003;42.756;23.130;2022-08-01T06:26:03;159975.00;;;29.17;39.89
11888;BME280;6003;42.756;23.130;2022-08-01T06:28:32;159950.91;;;29.08;39.61
11888;BME280;6003;42.756;23.130;2022-08-01T06:30:58;160074.13;;;29.55;40.12
11888;BME280;6003;42.756;23.130;2022-08-01T06:33:26;160031.25;;;29.39;39.88
11888;BME280;6003;42.756;23.130;2022-08-01T06:35:53;159999.13;;;29.27;40.56
11888;BME280;6003;42.756;23.130;2022-08-01T06:38:20;160015.19;;;29.33;40.04
11888;BME280;6003;42.756;23.130;2022-08-01T06:40:47;160054.03;;;29.48;41.24
11888;BME280;6003;42.756;23.130;2022-08-01T06:43:14;160161.19;;;29.88;39.36
11888;BME280;6003;42.756;23.130;2022-08-01T06:45:42;160247.03;;;30.21;39.99
11888;BME280;6003;42.756;23.130;2022-08-01T06:48:09;160004.44;;;29.29;38.88
11888;BME280;6003;42.756;23.130;2022-08-01T06:50:36;159969.66;;;29.15;42.10
11888;BME280;6003;42.756;23.130;2022-08-01T06:53:02;160106.31;;;29.67;39.14
11888;BME280;6003;42.756;23.130;2022-08-01T06:55:30;159973.66;;;29.17;39.41
11888;BME280;6003;42.756;23.130;2022-08-01T06:57:57;159624.25;;;27.83;39.43
11888;BME280;6003;42.756;23.130;2022-08-01T07:00:25;159281.78;;;26.52;42.13
11888;BME280;6003;42.756;23.130;2022-08-01T07:02:55;159319.22;;;26.67;43.46
11888;BME280;6003;42.756;23.130;2022-08-01T07:05:22;159404.81;;;26.99;42.53
11888;BME280;6003;42.756;23.130;2022-08-01T07:07:50;159164.13;;;26.07;43.06
11888;BME280;6003;42.756;23.130;2022-08-01T07:10:17;159252.31;;;26.41;43.60
11888;BME280;6003;42.756;23.130;2022-08-01T07:12:44;159245.69;;;26.39;43.14
11888;BME280;6003;42.756;23.130;2022-08-01T07:15:11;159176.13;;;26.12;43.11
11888;BME280;6003;42.756;23.130;2022-08-01T07:17:39;159196.19;;;26.20;44.25
11888;BME280;6003;42.756;23.130;2022-08-01T07:20:09;159094.63;;;25.81;46.38
11888;BME280;6003;42.756;23.130;2022-08-01T07:22:37;159029.13;;;25.56;48.37
11888;BME280;6003;42.756;23.130;2022-08-01T07:25:05;159011.78;;;25.49;45.66
11888;BME280;6003;42.756;23.130;2022-08-01T07:27:32;159043.84;;;25.61;46.24
11888;BME280;6003;42.756;23.130;2022-08-01T07:29:59;159049.13;;;25.63;46.23
11888;BME280;6003;42.756;23.130;2022-08-01T07:32:27;158934.28;;;25.19;47.67
11888;BME280;6003;42.756;23.130;2022-08-01T07:34:54;158904.84;;;25.08;47.70
11888;BME280;6003;42.756;23.130;2022-08-01T07:37:23;158856.78;;;24.90;48.78
11888;BME280;6003;42.756;23.130;2022-08-01T07:39:50;158886.16;;;25.01;48.83
11888;BME280;6003;42.756;23.130;2022-08-01T07:42:16;158927.59;;;25.17;47.98
11888;BME280;6003;42.756;23.130;2022-08-01T07:44:43;158928.91;;;25.17;48.63
11888;BME280;6003;42.756;23.130;2022-08-01T07:47:10;158947.63;;;25.25;47.35
11888;BME280;6003;42.756;23.130;2022-08-01T07:49:37;158816.72;;;24.74;48.69
11888;BME280;6003;42.756;23.130;2022-08-01T07:52:04;158747.28;;;24.48;47.74
11888;BME280;6003;42.756;23.130;2022-08-01T07:54:33;158759.31;;;24.52;48.47
11888;BME280;6003;42.756;23.130;2022-08-01T07:57:00;158812.69;;;24.73;48.37
11888;BME280;6003;42.756;23.130;2022-08-01T07:59:27;158878.16;;;24.98;48.43
11888;BME280;6003;42.756;23.130;2022-08-01T08:01:53;158835.41;;;24.82;48.54
11888;BME280;6003;42.756;23.130;2022-08-01T08:04:21;158784.66;;;24.62;48.16
11888;BME280;6003;42.756;23.130;2022-08-01T08:06:47;158862.13;;;24.92;48.90
11888;BME280;6003;42.756;23.130;2022-08-01T08:09:15;158918.19;;;25.13;47.83
11888;BME280;6003;42.756;23.130;2022-08-01T08:11:44;158854.13;;;24.89;47.34
11888;BME280;6003;42.756;23.130;2022-08-01T08:14:11;158834.06;;;24.81;47.92
11888;BME280;6003;42.756;23.130;2022-08-01T08:16:38;158850.09;;;24.87;48.80
11888;BME280;6003;42.756;23.130;2022-08-01T08:19:05;158900.84;;;25.07;48.33
11888;BME280;6003;42.756;23.130;2022-08-01T08:21:32;158979.69;;;25.37;47.46
11888;BME280;6003;42.756;23.130;2022-08-01T08:23:59;158993.06;;;25.42;46.40
11888;BME280;6003;42.756;23.130;2022-08-01T08:26:45;158993.06;;;25.42;46.94
11888;BME280;6003;42.756;23.130;2022-08-01T08:29:12;159038.47;;;25.59;46.59
11888;BME280;6003;42.756;23.130;2022-08-01T08:31:39;159090.59;;;25.79;45.92
11888;BME280;6003;42.756;23.130;2022-08-01T08:34:05;159007.75;;;25.48;46.86
11888;BME280;6003;42.756;23.130;2022-08-01T08:36:33;159026.44;;;25.55;45.73
11888;BME280;6003;42.756;23.130;2022-08-01T08:38:59;158903.50;;;25.08;46.13
11888;BME280;6003;42.756;23.130;2022-08-01T08:41:28;158993.06;;;25.42;47.00
11888;BME280;6003;42.756;23.130;2022-08-01T08:43:57;158985.03;;;25.39;46.84
11888;BME280;6003;42.756;23.130;2022-08-01T08:46:26;158945.00;;;25.24;46.16
11888;BME280;6003;42.756;23.130;2022-08-01T08:48:55;158958.31;;;25.29;46.87
11888;BME280;6003;42.756;23.130;2022-08-01T08:51:26;158981.00;;;25.37;46.68
11888;BME280;6003;42.756;23.130;2022-08-01T08:53:55;159051.84;;;25.64;47.26
11888;BME280;6003;42.756;23.130;2022-08-01T08:56:24;159070.53;;;25.72;44.69
11888;BME280;6003;42.756;23.130;2022-08-01T08:58:51;159041.13;;;25.60;42.43
11888;BME280;6003;42.756;23.130;2022-08-01T09:01:19;159102.69;;;25.84;44.81
11888;BME280;6003;42.756;23.130;2022-08-01T09:03:47;159091.91;;;25.80;43.11
11888;BME280;6003;42.756;23.130;2022-08-01T09:06:14;158951.66;;;25.26;44.47
11888;BME280;6003;42.756;23.130;2022-08-01T09:08:40;158990.41;;;25.41;44.90
11888;BME280;6003;42.756;23.130;2022-08-01T09:11:07;158936.97;;;25.20;43.66
11888;BME280;6003;42.756;23.130;2022-08-01T09:13:34;159007.75;;;25.48;46.22
11888;BME280;6003;42.756;23.130;2022-08-01T09:16:02;159086.56;;;25.78;44.94
11888;BME280;6003;42.756;23.130;2022-08-01T09:18:32;159017.09;;;25.51;46.48
11888;BME280;6003;42.756;23.130;2022-08-01T09:21:11;159057.22;;;25.66;47.27
11888;BME280;6003;42.756;23.130;2022-08-01T09:23:41;159041.13;;;25.60;46.91
11888;BME280;6003;42.756;23.130;2022-08-01T09:26:09;159081.25;;;25.76;48.93
11888;BME280;6003;42.756;23.130;2022-08-01T09:28:37;159188.19;;;26.17;48.55
11888;BME280;6003;42.756;23.130;2022-08-01T09:31:08;159224.28;;;26.30;46.64
11888;BME280;6003;42.756;23.130;2022-08-01T09:33:55;159260.38;;;26.44;46.79
11888;BME280;6003;42.756;23.130;2022-08-01T09:36:24;159241.66;;;26.37;46.39
11888;BME280;6003;42.756;23.130;2022-08-01T09:38:52;159260.38;;;26.44;43.94
11888;BME280;6003;42.756;23.130;2022-08-01T09:41:28;159169.44;;;26.09;42.70
11888;BME280;6003;42.756;23.130;2022-08-01T09:43:55;159141.41;;;25.99;44.55
11888;BME280;6003;42.756;23.130;2022-08-01T09:46:22;159182.81;;;26.15;45.06
11888;BME280;6003;42.756;23.130;2022-08-01T09:48:59;159208.25;;;26.24;46.28
11888;BME280;6003;42.756;23.130;2022-08-01T09:51:31;159303.19;;;26.61;45.23
11888;BME280;6003;42.756;23.130;2022-08-01T09:53:59;159311.19;;;26.64;43.56
11888;BME280;6003;42.756;23.130;2022-08-01T09:56:26;159391.44;;;26.94;46.05
11888;BME280;6003;42.756;23.130;2022-08-01T09:59:02;159475.72;;;27.27;44.11
11888;BME280;6003;42.756;23.130;2022-08-01T10:01:41;159299.19;;;26.59;43.43
11888;BME280;6003;42.756;23.130;2022-08-01T10:04:12;159354.00;;;26.80;46.82
11888;BME280;6003;42.756;23.130;2022-08-01T10:06:40;159355.31;;;26.81;42.82
11888;BME280;6003;42.756;23.130;2022-08-01T10:09:08;159324.56;;;26.69;45.23
11888;BME280;6003;42.756;23.130;2022-08-01T10:11:37;159305.88;;;26.62;44.30
11888;BME280;6003;42.756;23.130;2022-08-01T10:14:05;159419.53;;;27.05;43.48
11888;BME280;6003;42.756;23.130;2022-08-01T10:16:33;159380.75;;;26.90;41.46
11888;BME280;6003;42.756;23.130;2022-08-01T10:19:01;159193.53;;;26.19;41.05
11888;BME280;6003;42.756;23.130;2022-08-01T10:21:32;159106.66;;;25.85;43.78
11888;BME280;6003;42.756;23.130;2022-08-01T10:24:01;159067.88;;;25.71;43.27
11888;BME280;6003;42.756;23.130;2022-08-01T10:26:29;159110.69;;;25.87;43.44
11888;BME280;6003;42.756;23.130;2022-08-01T10:28:59;159174.81;;;26.11;43.96
11888;BME280;6003;42.756;23.130;2022-08-01T10:31:26;159152.09;;;26.03;42.79
11888;BME280;6003;42.756;23.130;2022-08-01T10:33:58;159172.16;;;26.10;44.77
11888;BME280;6003;42.756;23.130;2022-08-01T10:36:25;159204.22;;;26.23;43.25
11888;BME280;6003;42.756;23.130;2022-08-01T10:38:54;159172.16;;;26.10;44.68
11888;BME280;6003;42.756;23.130;2022-08-01T10:41:22;159160.09;;;26.06;45.90
11888;BME280;6003;42.756;23.130;2022-08-01T10:43:51;159124.03;;;25.92;43.11
11888;BME280;6003;42.756;23.130;2022-08-01T10:46:18;159122.69;;;25.92;43.61
11888;BME280;6003;42.756;23.130;2022-08-01T10:48:49;159113.34;;;25.88;42.81
11888;BME280;6003;42.756;23.130;2022-08-01T10:51:18;159134.75;;;25.96;44.22
11888;BME280;6003;42.756;23.130;2022-08-01T10:53:48;159070.53;;;25.72;43.75
11888;BME280;6003;42.756;23.130;2022-08-01T10:56:17;159055.81;;;25.66;44.31
11888;BME280;6003;42.756;23.130;2022-08-01T10:58:46;159067.88;;;25.71;45.30
11888;BME280;6003;42.756;23.130;2022-08-01T11:01:19;159067.88;;;25.71;44.35
11888;BME280;6003;42.756;23.130;2022-08-01T11:04:07;159063.84;;;25.69;45.37
11888;BME280;6003;42.756;23.130;2022-08-01T11:06:54;159030.47;;;25.56;43.88
11888;BME280;6003;42.756;23.130;2022-08-01T11:09:27;159085.22;;;25.77;44.52
11888;BME280;6003;42.756;23.130;2022-08-01T11:12:02;159114.69;;;25.88;45.99
11888;BME280;6003;42.756;23.130;2022-08-01T11:14:32;159158.78;;;26.05;46.14
11888;BME280;6003;42.756;23.130;2022-08-01T11:17:30;159142.75;;;25.99;44.58
11888;BME280;6003;42.756;23.130;2022-08-01T11:20:09;159067.88;;;25.71;45.71
11888;BME280;6003;42.756;23.130;2022-08-01T11:26:16;159009.06;;;25.48;44.38
11888;BME280;6003;42.756;23.130;2022-08-01T11:28:48;159023.78;;;25.54;50.09
11888;BME280;6003;42.756;23.130;2022-08-01T11:31:33;159113.34;;;25.88;46.26
11888;BME280;6003;42.756;23.130;2022-08-01T11:34:00;159101.31;;;25.83;45.23
11888;BME280;6003;42.756;23.130;2022-08-01T11:36:28;159137.41;;;25.97;45.91
11888;BME280;6003;42.756;23.130;2022-08-01T11:39:14;159202.88;;;26.22;45.95
11888;BME280;6003;42.756;23.130;2022-08-01T11:41:42;159210.91;;;26.25;45.11
11888;BME280;6003;42.756;23.130;2022-08-01T11:44:13;159150.78;;;26.02;44.29
11888;BME280;6003;42.756;23.130;2022-08-01T11:46:57;159095.94;;;25.81;45.45
11888;BME280;6003;42.756;23.130;2022-08-01T11:49:42;159133.41;;;25.96;46.49
11888;BME280;6003;42.756;23.130;2022-08-01T11:52:12;159205.53;;;26.23;45.65
11888;BME280;6003;42.756;23.130;2022-08-01T11:54:42;159196.19;;;26.20;46.54
11888;BME280;6003;42.756;23.130;2022-08-01T11:57:11;159214.94;;;26.27;45.62
11888;BME280;6003;42.756;23.130;2022-08-01T11:59:41;159209.59;;;26.25;46.08
11888;BME280;6003;42.756;23.130;2022-08-01T12:02:22;159216.25;;;26.27;43.06
11888;BME280;6003;42.756;23.130;2022-08-01T12:04:52;159216.25;;;26.27;45.54
11888;BME280;6003;42.756;23.130;2022-08-01T12:07:19;159132.09;;;25.95;43.89
11888;BME280;6003;42.756;23.130;2022-08-01T12:09:46;159120.03;;;25.91;45.13
11888;BME280;6003;42.756;23.130;2022-08-01T12:12:17;159124.03;;;25.92;45.20
11888;BME280;6003;42.756;23.130;2022-08-01T12:14:52;159140.09;;;25.98;43.31
11888;BME280;6003;42.756;23.130;2022-08-01T12:17:26;159099.97;;;25.83;45.58
11888;BME280;6003;42.756;23.130;2022-08-01T12:19:54;159153.41;;;26.03;45.55
11888;BME280;6003;42.756;23.130;2022-08-01T12:22:23;159150.78;;;26.02;46.32
11888;BME280;6003;42.756;23.130;2022-08-01T12:24:50;159164.13;;;26.07;44.40
11888;BME280;6003;42.756;23.130;2022-08-01T12:27:24;159177.50;;;26.13;45.57
11888;BME280;6003;42.756;23.130;2022-08-01T12:29:53;159166.78;;;26.08;45.32
11888;BME280;6003;42.756;23.130;2022-08-01T12:32:22;159180.16;;;26.14;44.81
11888;BME280;6003;42.756;23.130;2022-08-01T12:34:50;159160.09;;;26.06;44.74
11888;BME280;6003;42.756;23.130;2022-08-01T12:37:17;159197.53;;;26.20;44.46
11888;BME280;6003;42.756;23.130;2022-08-01T12:39:51;159193.53;;;26.19;46.23
11888;BME280;6003;42.756;23.130;2022-08-01T12:42:19;159236.28;;;26.35;44.56
11888;BME280;6003;42.756;23.130;2022-08-01T12:44:48;159225.63;;;26.31;44.02
11888;BME280;6003;42.756;23.130;2022-08-01T12:47:20;159239.00;;;26.36;45.50
11888;BME280;6003;42.756;23.130;2022-08-01T12:49:48;159234.97;;;26.34;44.37
11888;BME280;6003;42.756;23.130;2022-08-01T12:52:15;159285.81;;;26.54;44.07
11888;BME280;6003;42.756;23.130;2022-08-01T12:55:00;159295.16;;;26.58;43.14
11888;BME280;6003;42.756;23.130;2022-08-01T12:57:27;159327.22;;;26.70;44.84
11888;BME280;6003;42.756;23.130;2022-08-01T13:00:08;159394.09;;;26.95;44.25
11888;BME280;6003;42.756;23.130;2022-08-01T13:02:39;159428.88;;;27.09;44.91
11888;BME280;6003;42.756;23.130;2022-08-01T13:05:07;159474.38;;;27.26;44.96
11888;BME280;6003;42.756;23.130;2022-08-01T13:07:36;159493.09;;;27.33;43.57
11888;BME280;6003;42.756;23.130;2022-08-01T13:10:04;159479.75;;;27.28;43.06
11888;BME280;6003;42.756;23.130;2022-08-01T13:12:32;159412.84;;;27.03;41.71